sensor_id;sensor_type;location;lat;lon;timestamp;pressure;altitude;pressure_sealevel;temperature;humidity
42169;BME280;27838;43.858;25.974;2022-08-07T00:00:24;100623.81;;;29.69;42.83
42169;BME280;27838;43.858;25.974;2022-08-07T00:02:52;100622.81;;;29.70;43.02
42169;BME280;27838;43.858;25.974;2022-08-07T00:05:20;100627.56;;;29.67;43.01
42169;BME280;27838;43.858;25.974;2022-08-07T00:07:47;100626.84;;;29.65;42.75
42169;BME280;27838;43.858;25.974;2022-08-07T00:10:14;100641.53;;;29.61;42.69
42169;BME280;27838;43.858;25.974;2022-08-07T00:12:41;100638.72;;;29.51;43.03
42169;BME280;27838;43.858;25.974;2022-08-07T00:15:08;100635.69;;;29.44;43.10
42169;BME280;27838;43.858;25.974;2022-08-07T00:17:35;100639.34;;;29.43;43.18
42169;BME280;27838;43.858;25.974;2022-08-07T00:20:03;100627.63;;;29.44;43.30
42169;BME280;27838;43.858;25.974;2022-08-07T00:22:30;100636.44;;;29.46;43.02
42169;BME280;27838;43.858;25.974;2022-08-07T00:24:57;100630.19;;;29.46;43.43
42169;BME280;27838;43.858;25.974;2022-08-07T00:27:24;100640.19;;;29.44;43.24
42169;BME280;27838;43.858;25.974;2022-08-07T00:29:50;100633.50;;;29.38;43.01
42169;BME280;27838;43.858;25.974;2022-08-07T00:32:17;100642.78;;;29.34;43.32
42169;BME280;27838;43.858;25.974;2022-08-07T00:34:43;100642.31;;;29.29;43.60
42169;BME280;27838;43.858;25.974;2022-08-07T00:37:14;100646.19;;;29.25;43.87
42169;BME280;27838;43.858;25.974;2022-08-07T00:39:40;100637.31;;;29.24;44.14
42169;BME280;27838;43.858;25.974;2022-08-07T00:42:07;100638.88;;;29.27;43.96
42169;BME280;27838;43.858;25.974;2022-08-07T00:44:35;100643.28;;;29.28;43.91
42169;BME280;27838;43.858;25.974;2022-08-07T00:47:03;100647.91;;;29.26;44.20
42169;BME280;27838;43.858;25.974;2022-08-07T00:49:30;100645.72;;;29.19;44.33
42169;BME280;27838;43.858;25.974;2022-08-07T00:51:57;100641.44;;;29.17;44.44
42169;BME280;27838;43.858;25.974;2022-08-07T00:54:24;100639.81;;;29.14;44.55
42169;BME280;27838;43.858;25.974;2022-08-07T00:56:50;100640.09;;;29.11;44.21
42169;BME280;27838;43.858;25.974;2022-08-07T00:59:18;100638.59;;;29.07;44.62
42169;BME280;27838;43.858;25.974;2022-08-07T01:01:45;100639.84;;;29.03;44.47
42169;BME280;27838;43.858;25.974;2022-08-07T01:04:14;100640.91;;;29.00;44.94
42169;BME280;27838;43.858;25.974;2022-08-07T01:06:40;100639.47;;;28.96;44.79
42169;BME280;27838;43.858;25.974;2022-08-07T01:09:07;100645.94;;;28.94;45.26
42169;BME280;27838;43.858;25.974;2022-08-07T01:11:34;100643.38;;;28.92;45.14
42169;BME280;27838;43.858;25.974;2022-08-07T01:14:01;100648.72;;;28.92;45.25
42169;BME280;27838;43.858;25.974;2022-08-07T01:16:27;100649.81;;;28.90;45.74
42169;BME280;27838;43.858;25.974;2022-08-07T01:18:56;100656.41;;;28.86;45.91
42169;BME280;27838;43.858;25.974;2022-08-07T01:21:22;100660.53;;;28.78;45.56
42169;BME280;27838;43.858;25.974;2022-08-07T01:23:50;100664.78;;;28.70;45.99
42169;BME280;27838;43.858;25.974;2022-08-07T01:26:19;100657.72;;;28.69;46.07
42169;BME280;27838;43.858;25.974;2022-08-07T01:28:48;100654.91;;;28.70;45.99
42169;BME280;27838;43.858;25.974;2022-08-07T01:31:16;100660.78;;;28.75;45.58
42169;BME280;27838;43.858;25.974;2022-08-07T01:33:45;100663.69;;;28.72;45.52
42169;BME280;27838;43.858;25.974;2022-08-07T01:36:12;100658.31;;;28.72;45.43
42169;BME280;27838;43.858;25.974;2022-08-07T01:38:39;100662.97;;;28.70;45.44
42169;BME280;27838;43.858;25.974;2022-08-07T01:41:06;100650.66;;;28.68;45.91
42169;BME280;27838;43.858;25.974;2022-08-07T01:43:33;100657.09;;;28.65;45.83
42169;BME280;27838;43.858;25.974;2022-08-07T01:46:01;100657.09;;;28.65;45.76
42169;BME280;27838;43.858;25.974;2022-08-07T01:48:27;100654.13;;;28.57;45.97
42169;BME280;27838;43.858;25.974;2022-08-07T01:51:02;100651.19;;;28.49;46.35
42169;BME280;27838;43.858;25.974;2022-08-07T01:53:32;100655.06;;;28.44;46.27
42169;BME280;27838;43.858;25.974;2022-08-07T01:56:08;100652.25;;;28.35;46.77
42169;BME280;27838;43.858;25.974;2022-08-07T01:58:38;100663.91;;;28.34;46.73
42169;BME280;27838;43.858;25.974;2022-08-07T02:01:11;100656.88;;;28.33;46.57
42169;BME280;27838;43.858;25.974;2022-08-07T02:03:41;100657.09;;;28.30;46.58
42169;BME280;27838;43.858;25.974;2022-08-07T02:06:11;100661.59;;;28.29;46.40
42169;BME280;27838;43.858;25.974;2022-08-07T02:08:40;100662.78;;;28.25;46.76
42169;BME280;27838;43.858;25.974;2022-08-07T02:11:09;100668.63;;;28.19;46.50
42169;BME280;27838;43.858;25.974;2022-08-07T02:13:37;100670.78;;;28.14;45.89
42169;BME280;27838;43.858;25.974;2022-08-07T02:16:06;100684.63;;;28.08;45.94
42169;BME280;27838;43.858;25.974;2022-08-07T02:18:36;100677.81;;;28.03;45.45
42169;BME280;27838;43.858;25.974;2022-08-07T02:21:05;100679.00;;;27.99;45.71
42169;BME280;27838;43.858;25.974;2022-08-07T02:23:37;100679.22;;;27.96;45.65
42169;BME280;27838;43.858;25.974;2022-08-07T02:26:06;100671.41;;;27.93;45.64
42169;BME280;27838;43.858;25.974;2022-08-07T02:28:35;100683.84;;;27.94;45.49
42169;BME280;27838;43.858;25.974;2022-08-07T02:31:05;100679.34;;;27.95;44.79
42169;BME280;27838;43.858;25.974;2022-08-07T02:33:33;100684.69;;;27.95;44.77
42169;BME280;27838;43.858;25.974;2022-08-07T02:36:03;100688.22;;;27.95;44.96
42169;BME280;27838;43.858;25.974;2022-08-07T02:38:32;100686.63;;;27.93;44.89
42169;BME280;27838;43.858;25.974;2022-08-07T02:41:02;100678.91;;;27.88;44.53
42169;BME280;27838;43.858;25.974;2022-08-07T02:43:29;100688.13;;;27.84;44.55
42169;BME280;27838;43.858;25.974;2022-08-07T02:45:57;100692.63;;;27.83;44.49
42169;BME280;27838;43.858;25.974;2022-08-07T02:48:25;100685.34;;;27.85;44.47
42169;BME280;27838;43.858;25.974;2022-08-07T02:50:54;100686.19;;;27.86;44.62
42169;BME280;27838;43.858;25.974;2022-08-07T02:53:23;100686.19;;;27.86;44.29
42169;BME280;27838;43.858;25.974;2022-08-07T02:55:52;100675.47;;;27.86;44.36
42169;BME280;27838;43.858;25.974;2022-08-07T02:58:22;100687.03;;;27.86;44.38
42169;BME280;27838;43.858;25.974;2022-08-07T03:00:50;100693.13;;;27.88;44.60
42169;BME280;27838;43.858;25.974;2022-08-07T03:03:18;100682.31;;;27.90;44.20
42169;BME280;27838;43.858;25.974;2022-08-07T03:05:46;100701.06;;;27.90;44.34
42169;BME280;27838;43.858;25.974;2022-08-07T03:08:15;100692.41;;;27.86;44.50
42169;BME280;27838;43.858;25.974;2022-08-07T03:10:43;100695.81;;;27.88;44.62
42169;BME280;27838;43.858;25.974;2022-08-07T03:13:10;100698.38;;;27.90;44.17
42169;BME280;27838;43.858;25.974;2022-08-07T03:15:38;100701.94;;;27.91;44.70
42169;BME280;27838;43.858;25.974;2022-08-07T03:18:06;100707.19;;;27.92;44.76
42169;BME280;27838;43.858;25.974;2022-08-07T03:20:33;100704.50;;;27.92;44.49
42169;BME280;27838;43.858;25.974;2022-08-07T03:23:01;100711.25;;;27.98;44.44
42169;BME280;27838;43.858;25.974;2022-08-07T03:25:28;100719.06;;;28.01;44.02
42169;BME280;27838;43.858;25.974;2022-08-07T03:27:58;100714.16;;;27.95;44.04
42169;BME280;27838;43.858;25.974;2022-08-07T03:30:26;100717.91;;;27.92;44.52
42169;BME280;27838;43.858;25.974;2022-08-07T03:32:53;100718.22;;;27.87;44.74
42169;BME280;27838;43.858;25.974;2022-08-07T03:35:24;100713.31;;;27.81;44.49
42169;BME280;27838;43.858;25.974;2022-08-07T03:38:00;100712.88;;;27.75;45.07
42169;BME280;27838;43.858;25.974;2022-08-07T03:40:28;100717.59;;;27.71;45.21
42169;BME280;27838;43.858;25.974;2022-08-07T03:42:55;100715.81;;;27.72;44.96
42169;BME280;27838;43.858;25.974;2022-08-07T03:45:24;100712.16;;;27.73;45.24
42169;BME280;27838;43.858;25.974;2022-08-07T03:47:51;100721.53;;;27.78;45.11
42169;BME280;27838;43.858;25.974;2022-08-07T03:50:18;100727.56;;;27.82;44.90
42169;BME280;27838;43.858;25.974;2022-08-07T03:52:46;100737.09;;;27.86;45.14
42169;BME280;27838;43.858;25.974;2022-08-07T03:55:13;100736.97;;;27.87;45.04
42169;BME280;27838;43.858;25.974;2022-08-07T03:57:40;100728.06;;;27.87;45.18
42169;BME280;27838;43.858;25.974;2022-08-07T04:00:08;100738.56;;;27.90;45.31
42169;BME280;27838;43.858;25.974;2022-08-07T04:02:35;100744.03;;;27.88;45.65
42169;BME280;27838;43.858;25.974;2022-08-07T04:05:02;100745.75;;;27.90;45.24
42169;BME280;27838;43.858;25.974;2022-08-07T04:07:30;100743.84;;;27.92;45.72
42169;BME280;27838;43.858;25.974;2022-08-07T04:09:57;100744.69;;;27.92;45.57
42169;BME280;27838;43.858;25.974;2022-08-07T04:12:25;100742.22;;;27.89;45.37
42169;BME280;27838;43.858;25.974;2022-08-07T04:14:53;100740.84;;;27.96;45.53
42169;BME280;27838;43.858;25.974;2022-08-07T04:17:21;100737.06;;;27.99;45.33
42169;BME280;27838;43.858;25.974;2022-08-07T04:19:48;100744.16;;;28.00;45.50
42169;BME280;27838;43.858;25.974;2022-08-07T04:22:16;100744.88;;;28.02;45.77
42169;BME280;27838;43.858;25.974;2022-08-07T04:24:44;100748.19;;;28.05;45.81
42169;BME280;27838;43.858;25.974;2022-08-07T04:27:11;100747.25;;;28.06;45.76
42169;BME280;27838;43.858;25.974;2022-08-07T04:29:38;100754.50;;;28.04;45.95
42169;BME280;27838;43.858;25.974;2022-08-07T04:32:07;100753.53;;;28.05;46.02
42169;BME280;27838;43.858;25.974;2022-08-07T04:34:35;100754.19;;;28.09;45.95
42169;BME280;27838;43.858;25.974;2022-08-07T04:37:02;100760.78;;;28.16;46.11
42169;BME280;27838;43.858;25.974;2022-08-07T04:39:29;100754.00;;;28.23;46.14
42169;BME280;27838;43.858;25.974;2022-08-07T04:41:56;100750.78;;;28.31;46.30
42169;BME280;27838;43.858;25.974;2022-08-07T04:44:23;100751.41;;;28.35;46.66
42169;BME280;27838;43.858;25.974;2022-08-07T04:47:04;100757.38;;;28.38;46.75
42169;BME280;27838;43.858;25.974;2022-08-07T04:52:39;100752.53;;;28.43;47.08
42169;BME280;27838;43.858;25.974;2022-08-07T04:55:21;100756.56;;;28.49;46.85
42169;BME280;27838;43.858;25.974;2022-08-07T04:58:03;100754.44;;;28.54;47.26
42169;BME280;27838;43.858;25.974;2022-08-07T05:04:03;100747.03;;;28.58;46.45
42169;BME280;27838;43.858;25.974;2022-08-07T05:06:37;100755.09;;;28.69;46.63
42169;BME280;27838;43.858;25.974;2022-08-07T05:10:02;100761.34;;;28.70;46.62
42169;BME280;27838;43.858;25.974;2022-08-07T05:12:04;100758.53;;;28.71;46.28
42169;BME280;27838;43.858;25.974;2022-08-07T05:14:46;100755.75;;;28.73;46.23
42169;BME280;27838;43.858;25.974;2022-08-07T05:17:17;100765.59;;;28.72;46.13
42169;BME280;27838;43.858;25.974;2022-08-07T05:19:47;100763.78;;;28.73;45.52
42169;BME280;27838;43.858;25.974;2022-08-07T05:22:17;100767.94;;;28.77;45.49
42169;BME280;27838;43.858;25.974;2022-08-07T05:24:46;100771.34;;;28.79;45.27
42169;BME280;27838;43.858;25.974;2022-08-07T05:27:15;100773.19;;;28.78;45.50
42169;BME280;27838;43.858;25.974;2022-08-07T05:29:44;100773.91;;;28.80;45.36
42169;BME280;27838;43.858;25.974;2022-08-07T05:32:13;100781.13;;;28.80;45.53
42169;BME280;27838;43.858;25.974;2022-08-07T05:34:43;100786.13;;;28.85;45.00
42169;BME280;27838;43.858;25.974;2022-08-07T05:37:12;100782.25;;;28.89;45.23
42169;BME280;27838;43.858;25.974;2022-08-07T05:39:39;100782.25;;;28.89;44.64
42169;BME280;27838;43.858;25.974;2022-08-07T05:42:06;100781.03;;;28.93;44.87
42169;BME280;27838;43.858;25.974;2022-08-07T05:44:35;100785.19;;;28.97;44.61
42169;BME280;27838;43.858;25.974;2022-08-07T05:47:02;100785.78;;;29.00;45.04
42169;BME280;27838;43.858;25.974;2022-08-07T05:49:29;100794.34;;;29.06;44.36
42169;BME280;27838;43.858;25.974;2022-08-07T05:51:57;100799.38;;;29.10;44.08
42169;BME280;27838;43.858;25.974;2022-08-07T05:54:23;100796.47;;;29.13;43.85
42169;BME280;27838;43.858;25.974;2022-08-07T05:56:53;100802.34;;;29.18;43.94
42169;BME280;27838;43.858;25.974;2022-08-07T05:59:21;100800.91;;;29.26;43.67
42169;BME280;27838;43.858;25.974;2022-08-07T06:01:49;100804.09;;;29.31;43.74
42169;BME280;27838;43.858;25.974;2022-08-07T06:04:18;100805.78;;;29.32;43.83
42169;BME280;27838;43.858;25.974;2022-08-07T06:06:46;100793.34;;;29.31;43.81
42169;BME280;27838;43.858;25.974;2022-08-07T06:09:14;100803.59;;;29.37;43.72
42169;BME280;27838;43.858;25.974;2022-08-07T06:11:42;100805.09;;;29.41;43.71
42169;BME280;27838;43.858;25.974;2022-08-07T06:14:09;100799.22;;;29.47;43.38
42169;BME280;27838;43.858;25.974;2022-08-07T06:16:37;100797.03;;;29.52;43.59
42169;BME280;27838;43.858;25.974;2022-08-07T06:19:04;100805.56;;;29.58;43.12
42169;BME280;27838;43.858;25.974;2022-08-07T06:21:31;100803.38;;;29.63;43.06
42169;BME280;27838;43.858;25.974;2022-08-07T06:23:58;100801.19;;;29.68;42.85
42169;BME280;27838;43.858;25.974;2022-08-07T06:26:25;100802.63;;;29.72;42.92
42169;BME280;27838;43.858;25.974;2022-08-07T06:28:53;100801.78;;;29.71;42.89
42169;BME280;27838;43.858;25.974;2022-08-07T06:31:21;100799.00;;;29.73;42.90
42169;BME280;27838;43.858;25.974;2022-08-07T06:33:47;100801.97;;;29.81;42.90
42169;BME280;27838;43.858;25.974;2022-08-07T06:36:14;100805.59;;;29.80;42.67
42169;BME280;27838;43.858;25.974;2022-08-07T06:38:41;100802.69;;;29.83;42.53
42169;BME280;27838;43.858;25.974;2022-08-07T06:41:16;100799.00;;;29.84;42.45
42169;BME280;27838;43.858;25.974;2022-08-07T06:43:44;100794.13;;;29.89;42.48
42169;BME280;27838;43.858;25.974;2022-08-07T06:46:13;100799.00;;;29.96;42.39
42169;BME280;27838;43.858;25.974;2022-08-07T06:48:41;100803.88;;;30.02;42.12
42169;BME280;27838;43.858;25.974;2022-08-07T06:51:10;100798.00;;;30.08;42.02
42169;BME280;27838;43.858;25.974;2022-08-07T06:53:40;100802.88;;;30.14;42.00
42169;BME280;27838;43.858;25.974;2022-08-07T06:56:09;100809.84;;;30.17;41.83
42169;BME280;27838;43.858;25.974;2022-08-07T06:58:38;100809.72;;;30.18;41.90
42169;BME280;27838;43.858;25.974;2022-08-07T07:01:07;100806.91;;;30.20;41.66
42169;BME280;27838;43.858;25.974;2022-08-07T07:03:37;100811.06;;;30.24;41.73
42169;BME280;27838;43.858;25.974;2022-08-07T07:06:06;100812.38;;;30.29;41.75
42169;BME280;27838;43.858;25.974;2022-08-07T07:08:34;100806.75;;;30.33;41.69
42169;BME280;27838;43.858;25.974;2022-08-07T07:11:03;100811.16;;;30.34;41.68
42169;BME280;27838;43.858;25.974;2022-08-07T07:13:38;100809.09;;;30.37;41.67
42169;BME280;27838;43.858;25.974;2022-08-07T07:16:16;100815.09;;;30.41;41.42
42169;BME280;27838;43.858;25.974;2022-08-07T07:18:48;100806.91;;;30.42;41.47
42169;BME280;27838;43.858;25.974;2022-08-07T07:21:22;100819.09;;;30.46;41.47
42169;BME280;27838;43.858;25.974;2022-08-07T07:23:50;100812.34;;;30.52;41.42
42169;BME280;27838;43.858;25.974;2022-08-07T07:26:18;100822.59;;;30.58;41.14
42169;BME280;27838;43.858;25.974;2022-08-07T07:28:55;100822.09;;;30.64;41.04
42169;BME280;27838;43.858;25.974;2022-08-07T07:31:35;100824.00;;;30.74;41.20
42169;BME280;27838;43.858;25.974;2022-08-07T07:34:07;100815.53;;;30.78;41.08
42169;BME280;27838;43.858;25.974;2022-08-07T07:36:37;100823.72;;;30.88;40.84
42169;BME280;27838;43.858;25.974;2022-08-07T07:39:05;100825.06;;;30.94;40.90
42169;BME280;27838;43.858;25.974;2022-08-07T07:41:33;100827.22;;;31.00;40.46
42169;BME280;27838;43.858;25.974;2022-08-07T07:44:02;100825.97;;;31.04;40.20
42169;BME280;27838;43.858;25.974;2022-08-07T07:46:33;100822.16;;;31.06;40.14
42169;BME280;27838;43.858;25.974;2022-08-07T07:49:01;100820.19;;;31.09;40.02
42169;BME280;27838;43.858;25.974;2022-08-07T07:51:29;100819.09;;;31.11;40.10
42169;BME280;27838;43.858;25.974;2022-08-07T07:53:57;100826.50;;;31.19;39.98
42169;BME280;27838;43.858;25.974;2022-08-07T07:56:26;100818.63;;;31.27;39.87
42169;BME280;27838;43.858;25.974;2022-08-07T07:58:55;100811.97;;;31.31;39.85
42169;BME280;27838;43.858;25.974;2022-08-07T08:01:24;100810.75;;;31.35;39.34
42169;BME280;27838;43.858;25.974;2022-08-07T08:03:52;100819.28;;;31.40;39.48
42169;BME280;27838;43.858;25.974;2022-08-07T08:06:22;100810.91;;;31.43;39.13
42169;BME280;27838;43.858;25.974;2022-08-07T08:08:51;100819.00;;;31.43;38.90
42169;BME280;27838;43.858;25.974;2022-08-07T08:11:19;100822.94;;;31.39;38.46
42169;BME280;27838;43.858;25.974;2022-08-07T08:13:47;100815.00;;;31.38;38.68
42169;BME280;27838;43.858;25.974;2022-08-07T08:16:17;100814.88;;;31.39;38.91
42169;BME280;27838;43.858;25.974;2022-08-07T08:18:45;100817.56;;;31.39;39.03
42169;BME280;27838;43.858;25.974;2022-08-07T08:21:14;100817.03;;;31.46;38.59
42169;BME280;27838;43.858;25.974;2022-08-07T08:23:55;100820.94;;;31.53;38.67
42169;BME280;27838;43.858;25.974;2022-08-07T08:26:40;100816.84;;;31.58;38.34
42169;BME280;27838;43.858;25.974;2022-08-07T08:29:26;100819.00;;;31.65;38.66
42169;BME280;27838;43.858;25.974;2022-08-07T08:31:54;100826.41;;;31.72;38.44
42169;BME280;27838;43.858;25.974;2022-08-07T08:34:22;100817.50;;;31.81;38.15
42169;BME280;27838;43.858;25.974;2022-08-07T08:36:50;100806.19;;;31.88;38.27
42169;BME280;27838;43.858;25.974;2022-08-07T08:39:18;100807.63;;;31.92;38.37
42169;BME280;27838;43.858;25.974;2022-08-07T08:41:52;100808.47;;;31.92;38.31
42169;BME280;27838;43.858;25.974;2022-08-07T08:48:16;100811.41;;;32.10;38.03
42169;BME280;27838;43.858;25.974;2022-08-07T08:50:53;100809.41;;;32.22;38.07
42169;BME280;27838;43.858;25.974;2022-08-07T08:53:36;100807.47;;;32.24;37.63
42169;BME280;27838;43.858;25.974;2022-08-07T08:56:10;100793.69;;;32.27;37.59
42169;BME280;27838;43.858;25.974;2022-08-07T08:58:52;100797.81;;;32.31;37.17
42169;BME280;27838;43.858;25.974;2022-08-07T09:01:23;100792.28;;;32.33;37.13
42169;BME280;27838;43.858;25.974;2022-08-07T09:03:55;100791.56;;;32.31;37.47
42169;BME280;27838;43.858;25.974;2022-08-07T09:06:43;100788.84;;;32.31;37.10
42169;BME280;27838;43.858;25.974;2022-08-07T09:14:34;100788.88;;;32.41;36.91
42169;BME280;27838;43.858;25.974;2022-08-07T09:23:40;100777.56;;;32.66;36.07
42169;BME280;27838;43.858;25.974;2022-08-07T09:26:30;100774.84;;;32.76;36.00
42169;BME280;27838;43.858;25.974;2022-08-07T09:29:08;100775.13;;;32.83;35.58
42169;BME280;27838;43.858;25.974;2022-08-07T09:31:54;100773.69;;;32.88;35.12
42169;BME280;27838;43.858;25.974;2022-08-07T09:34:28;100772.72;;;32.89;35.32
42169;BME280;27838;43.858;25.974;2022-08-07T09:37:08;100769.41;;;32.96;34.57
42169;BME280;27838;43.858;25.974;2022-08-07T09:39:52;100776.66;;;33.05;34.93
42169;BME280;27838;43.858;25.974;2022-08-07T09:42:42;100765.41;;;33.09;34.94
42169;BME280;27838;43.858;25.974;2022-08-07T09:45:22;100761.47;;;33.14;34.14
42169;BME280;27838;43.858;25.974;2022-08-07T09:51:05;100756.75;;;33.06;34.26
42169;BME280;27838;43.858;25.974;2022-08-07T09:53:38;100764.56;;;33.09;34.91
42169;BME280;27838;43.858;25.974;2022-08-07T10:01:21;100745.69;;;33.19;33.57
42169;BME280;27838;43.858;25.974;2022-08-07T10:07:01;100737.25;;;33.32;33.46
42169;BME280;27838;43.858;25.974;2022-08-07T10:09:51;100742.44;;;33.43;33.35
42169;BME280;27838;43.858;25.974;2022-08-07T10:26:21;100738.19;;;33.78;32.36
42169;BME280;27838;43.858;25.974;2022-08-07T10:34:37;100729.50;;;34.02;31.60
42169;BME280;27838;43.858;25.974;2022-08-07T10:40:02;100728.06;;;34.08;31.55
42169;BME280;27838;43.858;25.974;2022-08-07T10:42:41;100733.16;;;34.11;30.58
42169;BME280;27838;43.858;25.974;2022-08-07T10:50:45;100729.16;;;34.15;31.59
42169;BME280;27838;43.858;25.974;2022-08-07T10:53:26;100727.13;;;34.17;31.12
42169;BME280;27838;43.858;25.974;2022-08-07T11:02:00;100717.97;;;34.28;31.22
42169;BME280;27838;43.858;25.974;2022-08-07T11:07:11;100712.00;;;34.42;30.82
42169;BME280;27838;43.858;25.974;2022-08-07T11:09:44;100723.50;;;34.44;30.79
42169;BME280;27838;43.858;25.974;2022-08-07T11:12:18;100709.53;;;34.49;30.84
42169;BME280;27838;43.858;25.974;2022-08-07T11:14:57;100713.59;;;34.53;30.61
42169;BME280;27838;43.858;25.974;2022-08-07T11:17:45;100709.59;;;34.57;29.79
42169;BME280;27838;43.858;25.974;2022-08-07T11:20:21;100702.03;;;34.60;30.17
42169;BME280;27838;43.858;25.974;2022-08-07T11:28:46;100706.19;;;34.73;29.89
42169;BME280;27838;43.858;25.974;2022-08-07T11:40:24;100693.50;;;34.99;28.91
42169;BME280;27838;43.858;25.974;2022-08-07T11:43:21;100691.84;;;35.07;28.76
42169;BME280;27838;43.858;25.974;2022-08-07T11:54:00;100682.34;;;35.29;27.12
42169;BME280;27838;43.858;25.974;2022-08-07T11:56:35;100682.19;;;35.30;27.07
42169;BME280;27838;43.858;25.974;2022-08-07T12:01:57;100670.47;;;35.30;26.82
42169;BME280;27838;43.858;25.974;2022-08-07T12:04:45;100677.97;;;35.36;26.86
42169;BME280;27838;43.858;25.974;2022-08-07T12:07:52;100683.09;;;35.47;26.91
42169;BME280;27838;43.858;25.974;2022-08-07T12:10:57;100687.34;;;35.50;26.69
42169;BME280;27838;43.858;25.974;2022-08-07T12:13:35;100677.34;;;35.50;26.64
42169;BME280;27838;43.858;25.974;2022-08-07T12:16:14;100684.31;;;35.53;27.32
42169;BME280;27838;43.858;25.974;2022-08-07T12:27:15;100667.91;;;35.54;26.93
42169;BME280;27838;43.858;25.974;2022-08-07T12:29:53;100665.84;;;35.57;26.63
42169;BME280;27838;43.858;25.974;2022-08-07T12:32:49;100665.00;;;35.56;27.03
42169;BME280;27838;43.858;25.974;2022-08-07T12:35:18;100664.16;;;35.55;26.80
42169;BME280;27838;43.858;25.974;2022-08-07T12:37:48;100671.59;;;35.53;26.80
42169;BME280;27838;43.858;25.974;2022-08-07T12:40:20;100659.06;;;35.52;26.14
42169;BME280;27838;43.858;25.974;2022-08-07T12:42:50;100660.09;;;35.51;26.44
42169;BME280;27838;43.858;25.974;2022-08-07T12:45:58;100658.38;;;35.50;26.44
42169;BME280;27838;43.858;25.974;2022-08-07T12:48:46;100643.78;;;35.43;26.84
42169;BME280;27838;43.858;25.974;2022-08-07T12:51:23;100657.34;;;35.43;26.17
42169;BME280;27838;43.858;25.974;2022-08-07T12:54:07;100642.13;;;35.42;25.83
42169;BME280;27838;43.858;25.974;2022-08-07T12:56:42;100645.31;;;35.38;26.18
42169;BME280;27838;43.858;25.974;2022-08-07T12:59:25;100643.06;;;35.33;26.04
42169;BME280;27838;43.858;25.974;2022-08-07T13:02:26;100634.94;;;35.33;26.40
42169;BME280;27838;43.858;25.974;2022-08-07T13:08:18;100640.34;;;35.25;26.40
42169;BME280;27838;43.858;25.974;2022-08-07T13:11:02;100626.97;;;35.23;26.53
42169;BME280;27838;43.858;25.974;2022-08-07T13:14:13;100618.44;;;35.18;26.62
42169;BME280;27838;43.858;25.974;2022-08-07T13:17:18;100623.88;;;35.18;26.36
42169;BME280;27838;43.858;25.974;2022-08-07T13:23:03;100616.22;;;35.13;26.56
42169;BME280;27838;43.858;25.974;2022-08-07T13:25:55;100617.06;;;35.14;26.14
42169;BME280;27838;43.858;25.974;2022-08-07T13:28:43;100623.34;;;35.14;26.27
42169;BME280;27838;43.858;25.974;2022-08-07T13:31:20;100616.22;;;35.13;26.34
42169;BME280;27838;43.858;25.974;2022-08-07T13:33:59;100613.19;;;35.16;26.85
42169;BME280;27838;43.858;25.974;2022-08-07T13:36:44;100611.88;;;35.21;26.67
42169;BME280;27838;43.858;25.974;2022-08-07T13:39:35;100608.16;;;35.22;26.23
42169;BME280;27838;43.858;25.974;2022-08-07T13:42:06;100612.00;;;35.19;26.17
42169;BME280;27838;43.858;25.974;2022-08-07T13:44:36;100612.88;;;35.20;26.02
42169;BME280;27838;43.858;25.974;2022-08-07T13:47:06;100605.06;;;35.16;25.94
42169;BME280;27838;43.858;25.974;2022-08-07T13:49:38;100608.41;;;35.10;26.57
42169;BME280;27838;43.858;25.974;2022-08-07T13:52:08;100615.84;;;35.08;26.52
42169;BME280;27838;43.858;25.974;2022-08-07T13:54:37;100618.88;;;35.05;26.05
42169;BME280;27838;43.858;25.974;2022-08-07T13:57:06;100618.88;;;35.05;25.20
42169;BME280;27838;43.858;25.974;2022-08-07T13:59:42;100618.88;;;35.05;25.22
42169;BME280;27838;43.858;25.974;2022-08-07T14:02:12;100610.75;;;35.05;25.58
42169;BME280;27838;43.858;25.974;2022-08-07T14:04:49;100618.88;;;35.05;25.67
42169;BME280;27838;43.858;25.974;2022-08-07T14:07:19;100609.56;;;34.99;25.94
42169;BME280;27838;43.858;25.974;2022-08-07T14:09:51;100602.47;;;34.98;25.90
42169;BME280;27838;43.858;25.974;2022-08-07T14:12:27;100605.84;;;35.01;26.04
42169;BME280;27838;43.858;25.974;2022-08-07T14:15:00;100597.41;;;35.04;25.52
42169;BME280;27838;43.858;25.974;2022-08-07T14:17:28;100594.50;;;35.05;25.61
42169;BME280;27838;43.858;25.974;2022-08-07T14:20:08;100602.31;;;35.08;25.70
42169;BME280;27838;43.858;25.974;2022-08-07T14:22:37;100604.88;;;35.10;25.78
42169;BME280;27838;43.858;25.974;2022-08-07T14:25:10;100608.09;;;35.13;25.70
42169;BME280;27838;43.858;25.974;2022-08-07T14:27:44;100613.66;;;35.12;25.30
42169;BME280;27838;43.858;25.974;2022-08-07T14:30:12;100601.47;;;35.08;25.05
42169;BME280;27838;43.858;25.974;2022-08-07T14:32:46;100605.03;;;35.08;25.26
42169;BME280;27838;43.858;25.974;2022-08-07T14:35:19;100606.06;;;35.07;25.27
42169;BME280;27838;43.858;25.974;2022-08-07T14:37:48;100607.06;;;35.06;25.22
42169;BME280;27838;43.858;25.974;2022-08-07T14:40:20;100608.41;;;35.02;25.12
42169;BME280;27838;43.858;25.974;2022-08-07T14:43:13;100604.34;;;35.06;25.52
42169;BME280;27838;43.858;25.974;2022-08-07T14:45:56;100611.63;;;35.06;25.78
42169;BME280;27838;43.858;25.974;2022-08-07T14:48:29;100610.59;;;35.07;25.80
42169;BME280;27838;43.858;25.974;2022-08-07T14:51:04;100613.16;;;35.08;26.29
42169;BME280;27838;43.858;25.974;2022-08-07T14:53:36;100612.84;;;35.11;26.10
42169;BME280;27838;43.858;25.974;2022-08-07T14:56:04;100612.50;;;35.14;25.90